Time;durP1;ratioP1;P1;durP2;ratioP2;P2;SDS_P1;SDS_P2;PMS_P1;PMS_P2;Temp;Humidity;BMP_temperature;BMP_pressure;BME280_temperature;BME280_humidity;BME280_pressure;Samples;Min_cycle;Max_cycle;Signal;HPM_P1;HPM_P2
2022/06/27 00:01:53;;;;;;;8.10;3.73;;;;;;;21.13;76.67;100625.69;5991874;28;20454;-66
2022/06/27 00:04:49;;;;;;;6.50;5.03;;;;;;;21.12;76.55;100632.13;5996408;28;20035;-67
2022/06/27 00:07:44;;;;;;;6.20;4.72;;;;;;;21.05;76.68;100617.84;5998259;28;20090;-67
2022/06/27 00:10:40;;;;;;;6.33;4.57;;;;;;;21.13;77.06;100611.38;6002323;28;20449;-67
2022/06/27 00:13:36;;;;;;;7.25;4.40;;;;;;;21.23;76.42;100626.03;5988963;28;20424;-67
2022/06/27 00:16:31;;;;;;;7.75;4.88;;;;;;;21.07;77.58;100613.06;5995099;28;20019;-66
2022/06/27 00:19:26;;;;;;;6.53;4.20;;;;;;;21.16;76.76;100619.88;5989607;28;20030;-67
2022/06/27 00:22:23;;;;;;;7.17;5.17;;;;;;;20.93;76.77;100608.75;5995590;28;20070;-66
2022/06/27 00:25:18;;;;;;;7.13;4.82;;;;;;;21.04;77.29;100621.56;6000806;28;20105;-66
2022/06/27 00:28:14;;;;;;;7.65;4.80;;;;;;;21.13;76.39;100623.00;5997030;28;20035;-66
2022/06/27 00:31:09;;;;;;;7.43;4.77;;;;;;;20.90;76.92;100611.09;6000827;28;20086;-67
2022/06/27 00:34:04;;;;;;;7.50;4.93;;;;;;;20.97;77.76;100628.03;5991643;28;20122;-67
2022/06/27 00:37:00;;;;;;;6.57;5.30;;;;;;;21.10;77.09;100620.75;5995720;28;20749;-67
2022/06/27 00:39:55;;;;;;;6.22;4.32;;;;;;;21.16;77.16;100636.06;6002517;28;20023;-66
2022/06/27 00:42:51;;;;;;;7.50;4.70;;;;;;;21.13;77.16;100631.09;6001044;28;20101;-66
2022/06/27 00:45:46;;;;;;;7.00;4.60;;;;;;;20.61;78.28;100625.94;6001783;28;20067;-66
2022/06/27 00:48:41;;;;;;;7.33;5.57;;;;;;;20.28;80.04;100636.81;5997491;28;20035;-67
2022/06/27 00:51:37;;;;;;;6.13;4.83;;;;;;;20.00;81.27;100650.47;6006060;28;20266;-66
2022/06/27 00:54:32;;;;;;;8.50;5.50;;;;;;;19.78;82.45;100657.16;6000809;28;20310;-66
2022/06/27 00:57:28;;;;;;;10.20;6.65;;;;;;;19.46;83.89;100664.16;6016834;28;20067;-66
2022/06/27 01:00:23;;;;;;;11.00;6.10;;;;;;;19.28;85.27;100666.56;5993218;28;20474;-66
2022/06/27 01:03:19;;;;;;;8.17;6.47;;;;;;;19.24;85.89;100680.63;6004323;28;20035;-66
2022/06/27 01:06:14;;;;;;;8.90;6.93;;;;;;;19.11;86.43;100675.19;6006644;28;20031;-66
2022/06/27 01:09:09;;;;;;;9.90;7.17;;;;;;;19.06;86.97;100683.88;6005266;28;20120;-66
2022/06/27 01:12:06;;;;;;;10.40;7.30;;;;;;;18.99;87.23;100683.88;6004261;28;20282;-66
2022/06/27 01:15:01;;;;;;;11.43;7.65;;;;;;;18.84;88.49;100680.50;6000580;28;20038;-66
2022/06/27 01:17:57;;;;;;;9.50;6.97;;;;;;;18.98;88.44;100692.94;6004865;28;20045;-66
2022/06/27 01:20:52;;;;;;;9.80;6.97;;;;;;;19.00;88.63;100690.06;6002799;28;20031;-66
2022/06/27 01:23:49;;;;;;;8.80;6.60;;;;;;;19.17;88.25;100685.97;6001962;28;20054;-66
2022/06/27 01:26:44;;;;;;;9.95;7.05;;;;;;;19.17;87.37;100701.28;6006162;28;20114;-66
2022/06/27 01:29:39;;;;;;;11.17;6.27;;;;;;;19.35;87.02;100701.56;6000097;28;20394;-67
2022/06/27 01:32:35;;;;;;;8.77;6.70;;;;;;;19.26;86.25;100694.69;6000739;28;20310;-67
2022/06/27 01:35:30;;;;;;;9.23;5.77;;;;;;;19.46;85.75;100695.59;6001859;28;20038;-67
2022/06/27 01:38:25;;;;;;;7.37;5.47;;;;;;;19.43;85.45;100698.72;6002967;28;20399;-66
2022/06/27 01:41:21;;;;;;;7.87;6.60;;;;;;;19.40;85.81;100696.44;5998431;28;20053;-67
2022/06/27 01:44:17;;;;;;;11.73;6.23;;;;;;;19.41;85.33;100685.44;6004413;28;20034;-66
2022/06/27 01:47:13;;;;;;;9.18;6.03;;;;;;;19.47;85.76;100686.50;5997501;28;20298;-66
2022/06/27 01:50:09;;;;;;;8.07;6.07;;;;;;;19.69;84.51;100681.75;6004807;28;20049;-66
2022/06/27 01:53:05;;;;;;;8.02;5.93;;;;;;;19.93;83.80;100689.22;5997767;28;20035;-67
2022/06/27 01:56:01;;;;;;;8.40;6.25;;;;;;;19.75;83.72;100687.16;6004176;28;20556;-66
2022/06/27 01:58:57;;;;;;;9.57;6.55;;;;;;;19.75;83.61;100676.41;6000785;28;20031;-67
2022/06/27 02:01:53;;;;;;;9.40;5.60;;;;;;;19.91;83.40;100681.38;6002764;28;20041;-66
2022/06/27 02:04:49;;;;;;;10.52;6.47;;;;;;;19.85;83.52;100679.50;6000934;28;20038;-66
2022/06/27 02:07:45;;;;;;;7.35;5.82;;;;;;;19.91;82.82;100680.53;6005049;28;20490;-67
2022/06/27 02:10:40;;;;;;;8.45;6.40;;;;;;;19.62;84.17;100684.47;5995928;28;20050;-66
2022/06/27 02:13:35;;;;;;;8.37;5.60;;;;;;;19.48;85.00;100680.94;5999552;28;20039;-67
2022/06/27 02:16:31;;;;;;;10.83;5.93;;;;;;;19.39;86.14;100681.31;6003207;28;20337;-66
2022/06/27 02:19:26;;;;;;;8.20;5.80;;;;;;;19.41;85.72;100682.75;5994443;28;20369;-66
2022/06/27 02:22:21;;;;;;;7.68;6.22;;;;;;;19.33;86.15;100684.78;5999221;28;20787;-67
2022/06/27 02:25:17;;;;;;;8.43;6.40;;;;;;;19.28;86.15;100685.41;5995987;28;20027;-66
2022/06/27 02:28:13;;;;;;;11.10;6.50;;;;;;;19.27;86.84;100699.06;5996176;28;20283;-66
2022/06/27 02:31:09;;;;;;;10.90;6.72;;;;;;;19.27;86.58;100688.31;5993647;28;20038;-66
2022/06/27 02:34:04;;;;;;;7.25;5.82;;;;;;;19.31;86.63;100698.44;5996161;28;20061;-66
2022/06/27 02:37:00;;;;;;;8.30;6.05;;;;;;;19.38;86.13;100693.94;6002220;28;20031;-67
2022/06/27 02:39:56;;;;;;;14.07;6.40;;;;;;;19.35;86.53;100699.66;5999032;28;20534;-67
2022/06/27 02:42:53;;;;;;;9.38;6.40;;;;;;;19.44;86.58;100703.88;6011295;28;20611;-66
2022/06/27 02:45:49;;;;;;;8.15;6.18;;;;;;;19.39;86.01;100692.06;6002049;28;20054;-66
2022/06/27 02:48:48;;;;;;;8.38;5.85;;;;;;;19.49;86.27;100695.19;5995712;28;20450;-67
2022/06/27 02:51:51;;;;;;;9.60;6.10;;;;;;;19.51;85.52;100674.31;5992412;28;20654;-67
2022/06/27 02:54:54;;;;;;;9.82;6.13;;;;;;;19.51;85.74;100693.13;5999630;28;20067;-67
2022/06/27 02:58:02;;;;;;;10.60;6.50;;;;;;;19.45;86.22;100693.94;5997361;28;20475;-66
2022/06/27 03:00:58;;;;;;;10.63;6.60;;;;;;;19.24;86.74;100686.00;6000672;28;20082;-66
2022/06/27 03:03:53;;;;;;;10.50;6.28;;;;;;;19.36;86.96;100692.44;5999828;28;20376;-66
2022/06/27 03:06:49;;;;;;;9.10;6.82;;;;;;;19.27;86.96;100701.75;6014898;28;20042;-66
2022/06/27 03:09:45;;;;;;;9.60;6.35;;;;;;;19.06;87.93;100700.00;5998629;28;20035;-67
2022/06/27 03:12:41;;;;;;;10.73;6.03;;;;;;;19.08;87.87;100719.44;5996277;28;20042;-66
2022/06/27 03:15:36;;;;;;;8.60;6.32;;;;;;;19.10;88.25;100727.31;5997743;28;20031;-66
2022/06/27 03:18:31;;;;;;;9.37;6.27;;;;;;;19.10;88.79;100713.88;5996012;28;20039;-66
2022/06/27 03:21:27;;;;;;;8.80;6.10;;;;;;;19.15;87.79;100711.41;6001211;28;20360;-66
2022/06/27 03:24:22;;;;;;;10.00;6.50;;;;;;;19.14;88.40;100713.28;5999834;28;20043;-66
2022/06/27 03:27:17;;;;;;;8.63;6.57;;;;;;;19.01;88.86;100703.31;6000857;28;20788;-66
2022/06/27 03:30:13;;;;;;;7.83;6.27;;;;;;;19.27;88.37;100709.81;5998977;28;20274;-66
2022/06/27 03:33:08;;;;;;;10.15;6.28;;;;;;;19.26;87.92;100697.38;5995315;28;20309;-66
2022/06/27 03:36:04;;;;;;;9.10;6.60;;;;;;;19.40;87.77;100713.41;5998893;28;20041;-66
2022/06/27 03:38:59;;;;;;;9.02;6.47;;;;;;;19.31;87.97;100703.81;5996032;28;20105;-67
2022/06/27 03:41:55;;;;;;;7.28;5.90;;;;;;;19.42;87.62;100705.94;5996968;28;20039;-66
2022/06/27 03:44:50;;;;;;;9.40;6.23;;;;;;;19.58;86.98;100693.97;5994185;28;20162;-66
2022/06/27 03:47:50;;;;;;;6.70;4.87;;;;;;;19.45;85.58;100704.72;5998463;28;20055;-66
2022/06/27 03:50:45;;;;;;;;;;;;;;;19.52;84.96;100700.16;6002388;28;20122;-66
2022/06/27 03:53:40;;;;;;;7.53;4.70;;;;;;;19.44;84.93;100700.34;5999472;28;20285;-66
2022/06/27 03:56:36;;;;;;;4.90;4.17;;;;;;;19.40;84.34;100697.25;6002328;28;20526;-66
2022/06/27 03:59:31;;;;;;;7.47;4.63;;;;;;;19.43;84.39;100712.16;5995608;28;20042;-66
2022/06/27 04:02:27;;;;;;;6.10;4.57;;;;;;;19.52;84.46;100700.16;5994681;28;20057;-66
2022/06/27 04:05:23;;;;;;;5.47;4.50;;;;;;;19.52;83.57;100684.84;5987119;28;20466;-66
2022/06/27 04:08:18;;;;;;;5.43;4.30;;;;;;;19.64;83.12;100687.78;5996272;28;20097;-66
2022/06/27 04:11:13;;;;;;;5.40;4.22;;;;;;;19.81;81.92;100693.59;5997176;28;20083;-66
2022/06/27 04:14:09;;;;;;;5.13;3.92;;;;;;;20.09;81.16;100686.09;5999941;28;20034;-66
2022/06/27 04:17:04;;;;;;;7.43;4.40;;;;;;;20.36;79.43;100665.38;6001991;28;20031;-66
2022/06/27 04:20:00;;;;;;;5.33;4.03;;;;;;;20.00;80.58;100655.06;6002319;28;20115;-66
2022/06/27 04:22:55;;;;;;;7.30;3.90;;;;;;;20.37;80.45;100669.72;5998706;28;20045;-66
2022/06/27 04:25:51;;;;;;;5.55;4.07;;;;;;;20.63;78.49;100661.56;6000498;28;20042;-66
2022/06/27 04:28:47;;;;;;;4.75;3.75;;;;;;;20.88;77.48;100658.97;5991799;28;20138;-66
2022/06/27 04:31:42;;;;;;;8.07;4.55;;;;;;;20.42;78.48;100632.22;6001762;28;20069;-66
2022/06/27 04:34:38;;;;;;;10.55;4.32;;;;;;;20.32;78.12;100638.06;5998994;28;20035;-66
2022/06/27 04:37:33;;;;;;;5.82;4.20;;;;;;;20.68;78.62;100645.59;5996001;28;20402;-66
2022/06/27 04:40:29;;;;;;;5.00;4.07;;;;;;;20.89;76.12;100634.53;6001578;28;20042;-66
2022/06/27 04:43:26;;;;;;;5.07;4.10;;;;;;;21.26;75.93;100631.00;5997270;28;20833;-66
2022/06/27 04:46:21;;;;;;;5.45;4.10;;;;;;;21.54;73.86;100637.88;6000679;28;20441;-66
2022/06/27 04:49:17;;;;;;;5.88;4.18;;;;;;;21.24;74.76;100621.47;6002168;28;20034;-66
2022/06/27 04:52:13;;;;;;;6.47;4.05;;;;;;;21.40;74.16;100628.22;5993178;28;20484;-66
2022/06/27 04:55:10;;;;;;;8.23;4.22;;;;;;;21.17;75.03;100631.50;5989630;28;20033;-66
2022/06/27 04:58:06;;;;;;;8.57;4.18;;;;;;;20.97;75.90;100628.03;6002273;28;20027;-66
2022/06/27 05:01:01;;;;;;;6.47;4.38;;;;;;;21.15;76.23;100623.59;6004897;28;20090;-66
2022/06/27 05:03:57;;;;;;;5.50;4.18;;;;;;;21.16;75.46;100630.66;5994528;28;20562;-66
2022/06/27 05:06:55;;;;;;;5.80;4.22;;;;;;;21.60;73.18;100631.59;5999983;28;20068;-67
2022/06/27 05:09:52;;;;;;;6.95;3.97;;;;;;;21.65;73.41;100634.47;5984669;28;20041;-66
2022/06/27 05:12:48;;;;;;;5.10;3.75;;;;;;;21.43;73.86;100635.88;5996221;28;20101;-66
2022/06/27 05:15:43;;;;;;;5.95;4.43;;;;;;;21.17;75.02;100632.31;6001494;28;20039;-66
2022/06/27 05:18:38;;;;;;;6.83;4.70;;;;;;;20.79;76.52;100624.19;6000365;28;20486;-66
2022/06/27 05:21:34;;;;;;;6.63;4.57;;;;;;;20.73;76.65;100625.06;6000305;28;20061;-66
2022/06/27 05:24:29;;;;;;;4.88;4.13;;;;;;;20.88;75.85;100623.94;5998594;28;20046;-66
2022/06/27 05:27:26;;;;;;;5.22;4.20;;;;;;;20.80;76.28;100646.59;5984273;28;20035;-66
2022/06/27 05:30:21;;;;;;;5.60;4.00;;;;;;;20.83;76.90;100648.84;5996083;28;20047;-66
2022/06/27 05:33:16;;;;;;;7.23;3.60;;;;;;;20.92;76.27;100650.28;6003588;28;20038;-66
2022/06/27 05:36:12;;;;;;;6.27;3.77;;;;;;;21.12;75.88;100656.41;5997433;28;20286;-66
2022/06/27 05:39:07;;;;;;;5.70;3.83;;;;;;;21.20;75.09;100652.63;5991380;28;20070;-66
2022/06/27 05:42:03;;;;;;;7.53;4.03;;;;;;;21.23;74.59;100654.88;5994223;28;20046;-67
2022/06/27 05:44:59;;;;;;;6.68;3.75;;;;;;;21.31;75.09;100643.84;6003022;28;20039;-66
2022/06/27 05:48:01;;;;;;;4.82;3.50;;;;;;;21.42;74.59;100655.81;5996229;28;20038;-66
2022/06/27 05:50:59;;;;;;;6.30;4.20;;;;;;;20.86;75.73;100632.25;6002542;28;20107;-66
2022/06/27 05:53:56;;;;;;;6.07;3.63;;;;;;;21.13;75.16;100636.50;5994830;28;20397;-67
2022/06/27 05:56:52;;;;;;;7.18;4.35;;;;;;;20.91;75.09;100627.03;6003824;28;20031;-66
2022/06/27 05:59:47;;;;;;;6.80;4.43;;;;;;;20.71;75.69;100639.75;6004714;28;20043;-66
2022/06/27 06:02:43;;;;;;;5.87;4.47;;;;;;;20.67;76.05;100636.69;5999209;28;20395;-66
2022/06/27 06:05:40;;;;;;;6.53;4.63;;;;;;;20.76;76.17;100656.16;6002350;28;20129;-66
2022/06/27 06:08:36;;;;;;;6.18;4.45;;;;;;;20.84;76.14;100661.31;5997044;28;20122;-66
2022/06/27 06:11:31;;;;;;;6.72;4.60;;;;;;;20.88;75.21;100656.28;5993444;28;20032;-66
2022/06/27 06:14:28;;;;;;;7.35;4.32;;;;;;;20.90;75.61;100663.13;5999127;28;20031;-66
2022/06/27 06:17:24;;;;;;;7.85;4.82;;;;;;;21.08;74.29;100660.59;5998119;28;20035;-66
2022/06/27 06:20:20;;;;;;;7.03;4.80;;;;;;;20.96;75.21;100664.97;6000911;28;20070;-66
2022/06/27 06:23:15;;;;;;;9.35;4.22;;;;;;;21.09;75.15;100672.22;5996769;28;20482;-66
2022/06/27 06:26:10;;;;;;;7.80;4.43;;;;;;;21.31;74.25;100684.31;6002240;28;20041;-66
2022/06/27 06:29:14;;;;;;;5.83;4.60;;;;;;;21.59;72.04;100684.75;6004842;28;20031;-67
2022/06/27 06:32:09;;;;;;;5.30;4.45;;;;;;;21.99;71.49;100689.91;5996416;28;20800;-66
2022/06/27 06:35:05;;;;;;;5.23;3.77;;;;;;;22.30;70.30;100706.84;6002862;28;20031;-66
2022/06/27 06:38:01;;;;;;;4.90;3.88;;;;;;;22.32;71.00;100718.25;5999140;28;20271;-66
2022/06/27 06:40:57;;;;;;;7.43;4.20;;;;;;;22.64;69.35;100724.41;5995864;28;20141;-66
2022/06/27 06:43:52;;;;;;;5.40;4.35;;;;;;;22.49;69.40;100719.34;6003913;28;20031;-67
2022/06/27 06:46:48;;;;;;;6.70;4.20;;;;;;;23.09;67.31;100700.56;6002863;28;20482;-67
2022/06/27 06:49:44;;;;;;;4.50;3.95;;;;;;;23.52;66.16;100714.78;6003687;28;20034;-66
2022/06/27 06:52:41;;;;;;;6.15;4.50;;;;;;;23.38;66.20;100717.91;6002155;28;20034;-66
2022/06/27 06:55:36;;;;;;;6.82;4.43;;;;;;;23.48;66.30;100713.56;6001784;28;21428;-66
2022/06/27 06:58:32;;;;;;;11.30;4.77;;;;;;;23.02;67.82;100705.22;6001277;28;20035;-66
2022/06/27 07:01:28;;;;;;;9.07;4.75;;;;;;;22.82;68.45;100691.13;6001383;28;20078;-66
2022/06/27 07:04:24;;;;;;;6.43;4.75;;;;;;;22.73;68.80;100671.69;6003648;28;20090;-66
2022/06/27 07:07:20;;;;;;;6.22;4.45;;;;;;;22.62;68.97;100672.41;6000103;28;20498;-66
2022/06/27 07:10:17;;;;;;;7.93;4.78;;;;;;;22.68;69.23;100695.03;5998768;28;20050;-66
2022/06/27 07:13:14;;;;;;;6.95;4.97;;;;;;;23.35;66.46;100692.09;5998599;28;20043;-66
2022/06/27 07:16:10;;;;;;;6.55;5.50;;;;;;;23.26;66.68;100693.47;5996997;28;20110;-67
2022/06/27 07:19:06;;;;;;;7.95;5.38;;;;;;;23.25;66.25;100675.59;5993650;28;20031;-66
2022/06/27 07:22:02;;;;;;;6.80;4.78;;;;;;;23.69;64.93;100661.63;6001213;28;20042;-66
2022/06/27 07:24:57;;;;;;;6.88;4.78;;;;;;;22.82;68.27;100664.91;6002383;28;20030;-66
2022/06/27 07:27:53;;;;;;;8.27;4.73;;;;;;;22.92;68.38;100664.38;6002218;28;20540;-66
2022/06/27 07:30:50;;;;;;;6.10;4.55;;;;;;;23.16;67.77;100666.13;5996370;28;20038;-66
2022/06/27 07:33:48;;;;;;;7.32;4.25;;;;;;;23.60;66.77;100670.28;6002007;28;20038;-66
2022/06/27 07:36:44;;;;;;;5.63;4.38;;;;;;;24.05;64.10;100670.59;6000420;28;20336;-66
2022/06/27 07:39:40;;;;;;;5.38;4.53;;;;;;;23.68;66.02;100686.22;6002052;28;20038;-67
2022/06/27 07:42:36;;;;;;;8.90;5.05;;;;;;;23.68;66.38;100695.16;6001986;28;20046;-66
2022/06/27 07:45:32;;;;;;;7.15;4.65;;;;;;;23.77;66.16;100697.53;6002163;28;20030;-66
2022/06/27 07:48:28;;;;;;;5.88;4.85;;;;;;;23.78;66.27;100691.06;6000557;28;20073;-66
2022/06/27 07:51:23;;;;;;;8.40;4.72;;;;;;;23.98;65.59;100673.41;6002465;28;20070;-67
2022/06/27 07:54:19;;;;;;;6.75;5.28;;;;;;;23.52;65.40;100657.94;6002006;28;20121;-66
2022/06/27 07:57:14;;;;;;;7.07;4.68;;;;;;;23.56;66.97;100667.22;5997860;28;20395;-66
2022/06/27 08:00:10;;;;;;;6.53;5.78;;;;;;;23.54;66.88;100658.50;5997407;28;20039;-66
2022/06/27 08:03:36;;;;;;;7.38;5.82;;;;;;;23.50;65.29;100660.03;6000381;28;20053;-66
2022/06/27 08:06:24;;;;;;;7.55;4.90;;;;;;;24.24;63.97;100670.25;5989712;28;20035;-67
2022/06/27 08:09:21;;;;;;;6.43;5.18;;;;;;;24.31;63.67;100670.16;6002768;28;20038;-66
2022/06/27 08:12:17;;;;;;;7.15;5.95;;;;;;;24.62;63.44;100667.03;5998359;28;20142;-67
2022/06/27 08:15:12;;;;;;;7.43;5.63;;;;;;;24.62;62.47;100667.03;5994801;28;20035;-67
2022/06/27 08:18:08;;;;;;;8.82;6.00;;;;;;;24.84;62.15;100668.06;5997468;28;20552;-66
2022/06/27 08:21:04;;;;;;;6.47;5.00;;;;;;;25.55;59.80;100693.91;5999100;28;20047;-67
2022/06/27 08:24:02;;;;;;;8.05;5.40;;;;;;;25.33;60.09;100690.19;5999472;28;20137;-66
2022/06/27 08:26:59;;;;;;;7.60;4.93;;;;;;;25.50;60.85;100707.38;6001932;28;20379;-67
2022/06/27 08:29:54;;;;;;;9.70;5.82;;;;;;;25.98;59.72;100706.88;6000636;28;20050;-66
2022/06/27 08:32:50;;;;;;;8.63;5.82;;;;;;;26.17;57.59;100691.16;5993974;28;20034;-66
2022/06/27 08:35:47;;;;;;;7.53;5.65;;;;;;;26.47;56.53;100691.63;6000824;28;20062;-66
2022/06/27 08:38:48;;;;;;;6.57;4.85;;;;;;;26.86;57.49;100712.31;5994845;28;20042;-67
2022/06/27 08:41:45;;;;;;;6.05;4.50;;;;;;;27.25;56.46;100720.38;5986250;28;20042;-66
2022/06/27 08:44:41;;;;;;;8.68;5.25;;;;;;;27.14;54.73;100709.38;5993458;28;20039;-66
2022/06/27 08:47:38;;;;;;;6.00;5.25;;;;;;;26.48;55.65;100710.41;5988821;28;20039;-66
2022/06/27 08:50:35;;;;;;;7.28;5.50;;;;;;;27.07;55.66;100714.19;5989662;28;20122;-66
2022/06/27 08:53:32;;;;;;;7.13;5.80;;;;;;;27.09;55.00;100712.06;5997301;28;20093;-67
2022/06/27 08:56:29;;;;;;;7.05;5.07;;;;;;;27.37;54.11;100729.25;5987283;28;20102;-66
2022/06/27 08:59:28;;;;;;;8.50;5.57;;;;;;;27.69;52.87;100716.53;5993346;28;20059;-66
2022/06/27 09:02:26;;;;;;;4.90;4.15;;;;;;;27.69;52.12;100711.88;5997264;28;20035;-65
2022/06/27 09:05:24;;;;;;;6.13;4.60;;;;;;;27.36;52.33;100708.53;6001193;28;20050;-66
2022/06/27 09:08:20;;;;;;;6.80;4.85;;;;;;;27.95;51.48;100714.84;5987873;28;20030;-66
2022/06/27 09:11:26;;;;;;;5.18;3.63;;;;;;;27.80;51.79;100706.53;5999484;28;20130;-66
2022/06/27 09:14:36;;;;;;;4.35;3.42;;;;;;;27.72;50.76;100705.13;5992249;28;20081;-66
2022/06/27 09:17:31;;;;;;;5.82;4.25;;;;;;;28.18;49.73;100719.97;5997711;28;20039;-66
2022/06/27 09:20:50;;;;;;;8.70;4.70;;;;;;;28.17;50.67;100721.03;6000014;28;20502;-67
2022/06/27 09:23:58;;;;;;;4.40;3.80;;;;;;;27.53;50.67;100720.19;5998500;28;20030;-66
2022/06/27 09:26:54;;;;;;;4.15;3.55;;;;;;;27.23;51.68;100728.00;6001705;28;20026;-66
2022/06/27 09:29:49;;;;;;;5.57;3.92;;;;;;;27.20;52.19;100724.69;6003079;28;20043;-66
2022/06/27 09:32:45;;;;;;;5.97;4.50;;;;;;;27.46;51.91;100717.66;5990354;28;20518;-66
2022/06/27 09:35:42;;;;;;;7.43;4.53;;;;;;;27.51;51.43;100720.44;5998335;28;20043;-66
2022/06/27 09:38:42;;;;;;;6.60;3.88;;;;;;;27.65;52.06;100720.84;6005427;28;20035;-67
2022/06/27 09:41:39;;;;;;;5.72;4.13;;;;;;;27.85;51.01;100710.13;6004727;28;20474;-67
2022/06/27 09:44:39;;;;;;;6.93;4.30;;;;;;;27.73;51.38;100723.91;6004063;28;20453;-66
2022/06/27 09:47:35;;;;;;;4.63;3.70;;;;;;;27.42;52.11;100734.78;6006208;28;20479;-67
2022/06/27 09:50:33;;;;;;;6.10;3.90;;;;;;;27.39;53.25;100722.47;6002440;28;20026;-67
2022/06/27 09:53:28;;;;;;;6.13;3.90;;;;;;;27.91;50.13;100714.53;6004991;28;20031;-67
2022/06/27 09:56:24;;;;;;;4.68;4.20;;;;;;;27.74;50.92;100714.69;5999862;28;20386;-66
2022/06/27 09:59:20;;;;;;;5.13;3.42;;;;;;;27.50;50.47;100712.53;6012969;28;20111;-66
2022/06/27 10:02:17;;;;;;;6.18;3.95;;;;;;;27.72;50.47;100700.47;5991508;28;20111;-67
2022/06/27 10:05:17;;;;;;;6.07;3.72;;;;;;;28.08;49.68;100703.50;6003801;28;20041;-66
2022/06/27 10:08:14;;;;;;;7.85;3.60;;;;;;;27.82;48.94;100699.75;6005544;28;20154;-66
2022/06/27 10:11:10;;;;;;;8.30;3.60;;;;;;;27.23;49.85;100717.09;5998830;28;20038;-66
2022/06/27 10:14:23;;;;;;;3.28;2.58;;;;;;;27.42;51.36;100727.41;6003818;28;20037;-66
2022/06/27 10:17:24;;;;;;;6.05;2.90;;;;;;;27.58;48.98;100733.88;6002942;28;20649;-67
2022/06/27 10:20:27;;;;;;;5.50;2.83;;;;;;;27.53;49.08;100739.25;5996041;28;20138;-66
2022/06/27 10:23:26;;;;;;;4.80;3.33;;;;;;;27.48;49.50;100739.19;6003293;28;20138;-67
2022/06/27 10:26:39;;;;;;;5.60;3.17;;;;;;;27.92;49.18;100735.25;6004488;28;20030;-67
2022/06/27 10:29:43;;;;;;;5.47;3.17;;;;;;;28.05;48.91;100726.69;5991987;28;20035;-67
2022/06/27 10:32:41;;;;;;;4.97;3.40;;;;;;;28.25;47.52;100715.94;6002466;28;20042;-66
2022/06/27 10:36:10;;;;;;;5.32;3.53;;;;;;;28.40;47.51;100719.84;5999643;28;20039;-67
2022/06/27 10:39:18;;;;;;;5.70;3.65;;;;;;;28.52;46.60;100707.63;6004268;28;20089;-67
2022/06/27 10:42:51;;;;;;;6.32;3.53;;;;;;;28.66;46.49;100716.22;6002975;28;20035;-66
2022/06/27 10:45:47;;;;;;;8.77;3.22;;;;;;;28.98;46.34;100699.69;6004004;28;20062;-66
2022/06/27 10:48:46;;;;;;;4.43;3.20;;;;;;;29.32;45.71;100704.50;5996749;28;20039;-67
2022/06/27 10:51:42;;;;;;;4.22;3.10;;;;;;;29.48;43.50;100706.16;5998451;28;20270;-67
2022/06/27 10:54:41;;;;;;;4.70;3.22;;;;;;;29.27;44.79;100715.38;6003609;28;20075;-67
2022/06/27 10:57:39;;;;;;;6.47;3.85;;;;;;;28.66;45.98;100711.56;6018237;28;20034;-66
2022/06/27 11:00:42;;;;;;;6.43;3.50;;;;;;;28.85;46.44;100710.03;6002305;28;20122;-67
2022/06/27 11:03:39;;;;;;;5.47;3.28;;;;;;;29.01;46.17;100702.72;5999091;28;20042;-67
2022/06/27 11:06:35;;;;;;;4.18;3.35;;;;;;;28.97;47.50;100696.16;6004159;28;20031;-66
2022/06/27 11:09:34;;;;;;;4.13;3.10;;;;;;;29.15;45.91;100690.19;6000790;28;20112;-67
2022/06/27 11:12:32;;;;;;;4.20;3.50;;;;;;;29.01;45.99;100691.78;5996122;28;20149;-67
2022/06/27 11:15:28;;;;;;;4.88;3.20;;;;;;;29.03;45.97;100686.03;6003158;28;20069;-67
2022/06/27 11:18:23;;;;;;;5.25;3.70;;;;;;;29.56;44.19;100693.03;6001668;28;20058;-67
2022/06/27 11:21:23;;;;;;;5.93;3.60;;;;;;;29.48;45.53;100692.50;6001174;28;20042;-67
2022/06/27 11:24:18;;;;;;;5.65;3.30;;;;;;;29.37;44.43;100700.94;6001147;28;20038;-67
2022/06/27 11:27:15;;;;;;;5.57;3.43;;;;;;;30.01;43.60;100701.28;5997409;28;20039;-66
2022/06/27 11:33:26;;;;;;;6.72;3.70;;;;;;;29.73;43.69;100694.44;6002965;28;20439;-67
2022/06/27 11:36:22;;;;;;;4.55;3.35;;;;;;;30.77;41.85;100682.81;6003604;28;20027;-67
2022/06/27 11:39:25;;;;;;;4.07;3.67;;;;;;;30.92;41.01;100671.81;5991524;28;20045;-67
2022/06/27 11:42:30;;;;;;;5.25;4.00;;;;;;;30.34;42.00;100667.84;6000331;28;20033;-67
2022/06/27 11:45:26;;;;;;;5.93;2.83;;;;;;;30.61;41.58;100668.34;6003335;28;20435;-67
2022/06/27 11:48:21;;;;;;;4.43;3.60;;;;;;;30.64;42.27;100677.94;5994590;28;20031;-67
2022/06/27 11:51:25;;;;;;;5.83;3.40;;;;;;;30.49;41.84;100678.78;6017050;28;20753;-67
2022/06/27 11:54:20;;;;;;;4.55;3.45;;;;;;;30.79;41.72;100677.06;5996058;28;20078;-67
2022/06/27 11:57:22;;;;;;;8.40;3.40;;;;;;;30.40;43.77;100685.13;6002403;28;20043;-67
2022/06/27 12:00:20;;;;;;;7.35;3.45;;;;;;;29.78;44.27;100669.00;5991897;28;20641;-67
2022/06/27 12:03:16;;;;;;;6.13;3.53;;;;;;;29.73;44.38;100669.00;5999622;28;20063;-67
2022/06/27 12:06:14;;;;;;;5.22;3.85;;;;;;;29.86;44.37;100665.75;5996109;28;20485;-67
2022/06/27 12:09:10;;;;;;;6.25;3.78;;;;;;;29.74;45.32;100662.41;6001468;28;20039;-67
2022/06/27 12:12:05;;;;;;;7.17;3.80;;;;;;;29.42;45.97;100679.91;5988013;28;20317;-67
2022/06/27 12:15:01;;;;;;;7.38;4.43;;;;;;;28.84;45.49;100680.25;5997937;28;20279;-67
2022/06/27 12:17:57;;;;;;;7.77;4.37;;;;;;;28.91;46.94;100683.56;5997400;28;20046;-67
2022/06/27 12:20:52;;;;;;;5.20;4.18;;;;;;;29.00;46.28;100684.66;5997368;28;20039;-66
2022/06/27 12:23:48;;;;;;;6.88;4.53;;;;;;;28.86;48.26;100689.00;6001240;28;20517;-67
2022/06/27 12:26:43;;;;;;;5.70;4.35;;;;;;;29.11;47.11;100675.41;6002515;28;20037;-66
2022/06/27 12:29:38;;;;;;;7.57;4.53;;;;;;;29.06;47.20;100683.59;5998176;28;20039;-66
2022/06/27 12:32:35;;;;;;;4.63;3.90;;;;;;;29.28;46.79;100695.19;6001880;28;20274;-67
2022/06/27 12:35:31;;;;;;;6.07;3.90;;;;;;;29.59;45.37;100698.78;6000914;28;20038;-67
2022/06/27 12:38:26;;;;;;;5.95;4.40;;;;;;;29.37;47.49;100693.56;6001871;28;20510;-67
2022/06/27 12:41:22;;;;;;;5.07;3.72;;;;;;;30.39;43.92;100692.50;6000952;28;20042;-67
2022/06/27 12:44:17;;;;;;;8.70;4.22;;;;;;;30.89;43.78;100698.91;6005791;28;20027;-67
2022/06/27 12:47:12;;;;;;;6.43;4.20;;;;;;;30.13;44.60;100701.84;6006524;28;20034;-67
2022/06/27 12:50:08;;;;;;;5.27;3.70;;;;;;;29.56;45.84;100707.53;6004993;28;20086;-67
2022/06/27 12:53:03;;;;;;;6.85;4.38;;;;;;;29.50;47.35;100720.38;6006280;28;20057;-66
2022/06/27 12:56:01;;;;;;;5.57;3.92;;;;;;;29.61;46.67;100717.66;6004871;28;20051;-67
2022/06/27 12:58:56;;;;;;;5.25;3.85;;;;;;;29.58;45.61;100723.66;6005624;28;20034;-67
2022/06/27 13:01:52;;;;;;;5.20;4.20;;;;;;;29.22;46.55;100729.03;5998028;28;20073;-67
2022/06/27 13:04:48;;;;;;;3.75;3.42;;;;;;;29.55;46.10;100735.13;6001522;28;20031;-67
2022/06/27 13:07:43;;;;;;;7.82;3.65;;;;;;;29.33;47.25;100727.97;6006435;28;20380;-67
2022/06/27 13:10:38;;;;;;;4.63;4.00;;;;;;;29.85;45.64;100722.34;6005188;28;20074;-67
2022/06/27 13:13:35;;;;;;;5.90;4.47;;;;;;;29.46;48.21;100716.53;6006676;28;20033;-67
2022/06/27 13:16:30;;;;;;;7.40;4.50;;;;;;;29.72;47.94;100713.84;6006100;28;20113;-67
2022/06/27 13:19:25;;;;;;;8.97;5.00;;;;;;;29.08;49.25;100711.47;6003272;28;20093;-67
2022/06/27 13:22:21;;;;;;;8.15;5.40;;;;;;;29.81;47.15;100720.44;6005722;28;20034;-67
2022/06/27 13:25:16;;;;;;;7.90;5.87;;;;;;;29.24;47.50;100718.69;6004701;28;20031;-66
2022/06/27 13:28:12;;;;;;;6.93;5.15;;;;;;;28.36;50.64;100711.34;6006037;28;20041;-67
2022/06/27 13:31:07;;;;;;;8.65;5.20;;;;;;;28.06;49.90;100722.88;6004759;28;20130;-67
2022/06/27 13:34:02;;;;;;;5.70;4.80;;;;;;;27.83;51.09;100709.53;6005503;28;20058;-67
2022/06/27 13:36:58;;;;;;;9.23;5.07;;;;;;;28.05;51.39;100714.94;6002143;28;20282;-67
2022/06/27 13:39:53;;;;;;;6.73;5.27;;;;;;;27.99;51.26;100711.34;6004816;28;20377;-67
2022/06/27 13:42:48;;;;;;;9.40;6.17;;;;;;;28.03;51.97;100707.03;6005664;28;20038;-67
2022/06/27 13:45:44;;;;;;;8.13;6.00;;;;;;;28.72;50.20;100693.31;6005374;28;20565;-67